Time;durP1;ratioP1;P1;durP2;ratioP2;P2;SDS_P1;SDS_P2;PMS_P1;PMS_P2;Temp;Humidity;BMP_temperature;BMP_pressure;BME280_temperature;BME280_humidity;BME280_pressure;Samples;Min_cycle;Max_cycle;Signal;HPM_P1;HPM_P2
2022/10/23 00:00:11;;;;;;;26.83;6.97;;;;;;;19.81;100.00;94996.44;5075128;28;20441;-91
2022/10/23 00:02:36;;;;;;;30.52;6.53;;;;;;;19.90;100.00;94988.47;5075371;28;20039;-94
2022/10/23 00:05:02;;;;;;;23.20;6.35;;;;;;;19.92;100.00;94988.97;5075360;28;20353;-92
2022/10/23 00:07:27;;;;;;;22.42;6.93;;;;;;;20.01;100.00;94995.09;5058677;28;20433;-93
2022/10/23 00:09:53;;;;;;;32.22;6.60;;;;;;;20.04;100.00;94986.47;5075309;28;20021;-92
2022/10/23 00:12:18;;;;;;;37.03;7.75;;;;;;;19.88;100.00;94985.34;5075246;28;20078;-93
2022/10/23 00:14:44;;;;;;;31.25;8.00;;;;;;;19.93;100.00;94985.22;5075235;28;20152;-93
2022/10/23 00:17:11;;;;;;;41.50;7.25;;;;;;;19.92;100.00;94986.31;5075560;28;20033;-92
2022/10/23 00:19:36;;;;;;;39.97;7.78;;;;;;;19.87;100.00;94978.44;5075125;28;20039;-92
2022/10/23 00:22:02;;;;;;;30.50;7.10;;;;;;;19.88;100.00;94985.34;5075091;28;20441;-92
2022/10/23 00:24:28;;;;;;;25.02;7.22;;;;;;;19.74;100.00;94988.13;5075213;28;20047;-93
2022/10/23 00:26:53;;;;;;;30.75;8.02;;;;;;;19.52;100.00;94992.47;5058772;28;20024;-93
2022/10/23 00:29:18;;;;;;;35.80;8.07;;;;;;;19.54;100.00;94986.81;5058820;28;20089;-94
2022/10/23 00:31:44;;;;;;;27.50;7.18;;;;;;;19.30;100.00;94980.81;5076206;28;20060;-92
2022/10/23 00:34:09;;;;;;;35.60;7.65;;;;;;;19.75;100.00;94993.16;5058644;28;20421;-93
2022/10/23 00:36:36;;;;;;;37.20;7.78;;;;;;;19.59;100.00;94990.13;5075339;28;20036;-93
2022/10/23 00:39:02;;;;;;;26.60;7.80;;;;;;;19.59;100.00;94986.69;5074951;28;20030;-93
2022/10/23 00:41:29;;;;;;;31.95;7.95;;;;;;;19.79;100.00;94987.97;5058381;28;20127;-94
2022/10/23 00:44:08;;;;;;;33.33;7.47;;;;;;;19.84;100.00;94985.19;5058429;28;20028;-92
2022/10/23 00:46:35;;;;;;;42.25;7.97;;;;;;;19.64;100.00;94987.31;5075021;28;20343;-92
2022/10/23 00:49:01;;;;;;;32.90;7.53;;;;;;;19.87;100.00;94989.88;5076077;28;20516;-92
2022/10/23 00:51:30;;;;;;;36.15;7.90;;;;;;;20.09;100.00;94985.53;5058333;28;20445;-92
2022/10/23 00:53:57;;;;;;;40.45;8.57;;;;;;;19.87;100.00;94989.06;5075225;28;20029;-92
2022/10/23 00:56:24;;;;;;;31.70;7.95;;;;;;;19.85;100.00;94991.25;5076789;28;20028;-91
2022/10/23 00:58:50;;;;;;;37.35;8.07;;;;;;;19.94;100.00;94991.28;5078365;28;20059;-91
2022/10/23 01:01:22;;;;;;;38.80;6.93;;;;;;;20.04;100.00;94994.47;5078375;28;20071;-91
2022/10/23 01:03:48;;;;;;;20.65;7.60;;;;;;;20.08;100.00;94999.91;5061987;28;20067;-91
2022/10/23 01:06:32;;;;;;;32.67;7.97;;;;;;;19.85;100.00;94986.75;5078355;28;20525;-91
2022/10/23 01:09:21;;;;;;;38.92;8.48;;;;;;;19.98;100.00;94994.91;5079547;28;20429;-92
2022/10/23 01:11:46;;;;;;;34.30;8.43;;;;;;;19.93;100.00;94993.19;5048833;28;20051;-92
2022/10/23 01:14:25;;;;;;;32.00;6.75;;;;;;;20.25;100.00;94987.72;5078411;28;20062;-92
2022/10/23 01:16:57;;;;;;;33.72;7.03;;;;;;;19.84;100.00;94985.19;5062036;28;20044;-90
2022/10/23 01:19:28;;;;;;;26.27;7.17;;;;;;;20.31;100.00;94987.25;5061937;28;20349;-92
2022/10/23 01:22:32;;;;;;;36.90;7.32;;;;;;;20.27;100.00;94980.22;5078199;28;20059;-92
2022/10/23 01:25:02;;;;;;;27.60;7.18;;;;;;;20.32;100.00;94975.53;5078211;28;20040;-91
2022/10/23 01:27:32;;;;;;;36.03;8.60;;;;;;;19.99;100.00;94977.88;5078019;28;20032;-93
2022/10/23 01:30:03;;;;;;;28.85;7.38;;;;;;;20.20;100.00;94975.38;5061455;28;20028;-91
2022/10/23 01:33:08;;;;;;;28.67;6.90;;;;;;;20.26;100.00;94973.34;5078926;28;20111;-91
2022/10/23 01:35:37;;;;;;;29.88;7.47;;;;;;;20.19;100.00;94979.13;5061676;28;20071;-92
2022/10/23 01:38:06;;;;;;;35.70;7.60;;;;;;;20.06;100.00;94973.66;5061260;28;20434;-92
2022/10/23 01:40:36;;;;;;;26.80;7.35;;;;;;;20.16;100.00;94977.09;5077611;28;20081;-91
2022/10/23 01:43:09;;;;;;;30.75;8.30;;;;;;;20.10;100.00;94983.66;5061151;28;20386;-91
2022/10/23 01:45:41;;;;;;;25.03;7.13;;;;;;;20.18;100.00;94975.66;5077667;28;20025;-92
2022/10/23 01:48:09;;;;;;;41.90;8.55;;;;;;;19.97;100.00;94972.09;5077921;28;20036;-92
2022/10/23 01:50:35;;;;;;;33.58;7.43;;;;;;;19.93;100.00;94974.56;5060884;28;20031;-91
2022/10/23 01:53:03;;;;;;;32.45;7.93;;;;;;;19.87;100.00;94981.88;5077566;28;20028;-92
2022/10/23 01:55:30;;;;;;;26.85;7.30;;;;;;;19.97;100.00;94969.44;5061040;28;20046;-91
2022/10/23 01:57:55;;;;;;;24.42;6.85;;;;;;;20.00;100.00;94974.09;5060895;28;20031;-92
2022/10/23 02:00:21;;;;;;;31.05;7.07;;;;;;;19.88;100.00;94962.19;5077273;28;20033;-91
2022/10/23 02:02:47;;;;;;;38.58;7.95;;;;;;;20.00;100.00;94968.78;5060817;28;20090;-90
2022/10/23 02:05:17;;;;;;;36.20;7.40;;;;;;;20.08;100.00;94975.97;5077483;28;20040;-91
2022/10/23 02:07:43;;;;;;;31.08;7.38;;;;;;;20.02;100.00;94977.25;5077025;28;20079;-92
2022/10/23 02:10:10;;;;;;;29.52;6.88;;;;;;;19.57;100.00;94979.03;5060611;28;20338;-91
2022/10/23 02:13:02;;;;;;;29.80;7.28;;;;;;;19.70;100.00;94976.56;5077427;28;20070;-90
2022/10/23 02:15:33;;;;;;;42.05;8.15;;;;;;;19.53;100.00;94977.28;5060577;28;20032;-92
2022/10/23 02:18:10;;;;;;;43.05;7.85;;;;;;;19.80;100.00;94975.47;5076962;28;20039;-92
2022/10/23 02:20:39;;;;;;;27.90;6.85;;;;;;;19.67;100.00;94977.19;5077123;28;20034;-91
2022/10/23 02:23:15;;;;;;;33.17;7.78;;;;;;;19.61;100.00;94979.19;5076957;28;20024;-91
2022/10/23 02:25:50;;;;;;;28.52;7.30;;;;;;;19.64;100.00;94971.38;5078359;28;20036;-92
2022/10/23 02:28:19;;;;;;;30.88;6.72;;;;;;;19.46;100.00;94969.78;5076913;28;20524;-91
2022/10/23 02:30:46;;;;;;;23.00;6.55;;;;;;;19.57;100.00;94967.59;5076646;28;20039;-91
2022/10/23 02:33:12;;;;;;;44.28;7.28;;;;;;;19.39;100.00;94969.47;5077029;28;20040;-91
2022/10/23 02:35:38;;;;;;;38.10;7.28;;;;;;;19.44;100.00;94971.97;5060182;28;20092;-91
2022/10/23 02:38:23;;;;;;;33.92;6.78;;;;;;;19.48;100.00;94970.25;5076500;28;20044;-91
2022/10/23 02:40:48;;;;;;;35.65;7.22;;;;;;;19.55;100.00;94965.28;5076391;28;20024;-91
2022/10/23 02:43:24;;;;;;;26.23;6.60;;;;;;;19.61;100.00;94969.34;5076587;28;20036;-92
2022/10/23 02:45:59;;;;;;;32.92;6.30;;;;;;;19.58;100.00;94967.31;5060051;28;20494;-91
2022/10/23 02:48:31;;;;;;;36.72;6.97;;;;;;;19.47;100.00;94966.81;5076412;28;20022;-90
2022/10/23 02:51:04;;;;;;;33.25;7.28;;;;;;;19.33;100.00;94966.94;5076342;28;20032;-92
2022/10/23 02:53:35;;;;;;;29.00;7.37;;;;;;;19.41;100.00;94964.63;5077767;28;20028;-91
2022/10/23 02:56:18;;;;;;;33.28;6.80;;;;;;;19.25;100.00;94967.69;5076584;28;20644;-91
2022/10/23 02:58:55;;;;;;;34.75;7.30;;;;;;;19.01;100.00;94962.75;5059980;28;20039;-91
2022/10/23 03:01:25;;;;;;;38.20;6.32;;;;;;;19.08;100.00;94960.44;5060303;28;20119;-91
2022/10/23 03:03:53;;;;;;;26.08;6.90;;;;;;;18.88;100.00;94964.38;5076037;28;20062;-91
2022/10/23 03:06:19;;;;;;;29.42;7.00;;;;;;;18.88;100.00;94970.50;5048485;28;20033;-91
2022/10/23 03:08:59;;;;;;;24.02;6.90;;;;;;;18.81;100.00;94967.47;5057483;28;20048;-91
2022/10/23 03:11:25;;;;;;;28.88;7.40;;;;;;;18.76;100.00;94970.28;5075504;28;20035;-91
2022/10/23 03:13:50;;;;;;;26.13;7.22;;;;;;;18.73;100.00;94973.53;5059083;28;20037;-91
2022/10/23 03:16:16;;;;;;;32.95;7.60;;;;;;;18.78;100.00;94974.16;5039492;28;20036;-90
2022/10/23 03:18:41;;;;;;;22.52;6.40;;;;;;;18.82;100.00;94979.66;5038618;28;20033;-90
2022/10/23 03:21:07;;;;;;;34.20;7.07;;;;;;;18.80;100.00;94981.84;5055775;28;20033;-91
2022/10/23 03:23:32;;;;;;;34.25;7.97;;;;;;;18.57;100.00;94973.13;5057299;28;20506;-91
2022/10/23 03:25:58;;;;;;;36.15;7.85;;;;;;;18.73;100.00;94976.97;5055817;28;20380;-91
2022/10/23 03:28:23;;;;;;;30.40;8.18;;;;;;;18.80;100.00;94971.22;5057216;28;20033;-91
2022/10/23 03:30:49;;;;;;;18.67;6.35;;;;;;;18.83;100.00;94961.88;5055518;28;20362;-90
2022/10/23 03:33:14;;;;;;;36.97;7.53;;;;;;;18.73;100.00;94966.34;5055865;28;20057;-91
2022/10/23 03:35:40;;;;;;;37.38;9.20;;;;;;;18.62;100.00;94973.00;5055801;28;20139;-90
2022/10/23 03:38:05;;;;;;;29.05;8.20;;;;;;;18.78;100.00;94973.41;5069858;28;20059;-90
2022/10/23 03:40:31;;;;;;;30.50;8.20;;;;;;;18.77;100.00;94969.19;5075363;28;20067;-91
2022/10/23 03:42:56;;;;;;;29.90;7.38;;;;;;;18.66;100.00;94973.97;5058621;28;20142;-91
2022/10/23 03:45:21;;;;;;;40.40;8.52;;;;;;;18.50;100.00;94976.22;5075722;28;20468;-91
2022/10/23 03:47:47;;;;;;;28.88;8.70;;;;;;;18.45;100.00;94971.03;5075488;28;20082;-90
2022/10/23 03:50:13;;;;;;;34.75;7.80;;;;;;;18.60;100.00;94973.31;5076599;28;20021;-90
2022/10/23 03:52:39;;;;;;;34.42;8.45;;;;;;;18.63;100.00;94977.22;5058954;28;20032;-91
2022/10/23 03:55:05;;;;;;;29.65;7.65;;;;;;;18.65;100.00;94975.06;5075491;28;20029;-91
2022/10/23 03:57:31;;;;;;;32.80;8.13;;;;;;;18.47;100.00;94980.25;5075592;28;20032;-90
2022/10/23 03:59:56;;;;;;;32.92;9.18;;;;;;;18.53;100.00;94972.94;5075322;28;20094;-91
2022/10/23 04:02:22;;;;;;;40.92;8.82;;;;;;;18.27;100.00;94978.84;5075188;28;20035;-91
2022/10/23 04:04:47;;;;;;;37.28;9.73;;;;;;;18.14;100.00;94972.53;5076519;28;20029;-91
2022/10/23 04:07:13;;;;;;;38.05;9.00;;;;;;;18.36;100.00;94969.09;5075312;28;20032;-90
2022/10/23 04:09:38;;;;;;;37.47;8.77;;;;;;;18.54;100.00;94969.19;5075305;28;20029;-90
2022/10/23 04:12:04;;;;;;;30.45;8.95;;;;;;;18.45;100.00;94973.69;5058677;28;20033;-91
2022/10/23 04:14:29;;;;;;;26.77;8.73;;;;;;;18.62;100.00;94970.34;5058741;28;20425;-90
2022/10/23 04:16:55;;;;;;;26.83;8.50;;;;;;;18.59;100.00;94981.56;5059036;28;20098;-92
2022/10/23 04:19:21;;;;;;;36.97;9.07;;;;;;;18.34;100.00;94979.22;5058700;28;20033;-90
2022/10/23 04:21:46;;;;;;;34.78;8.73;;;;;;;18.58;100.00;94974.69;5075124;28;20056;-90
2022/10/23 04:24:11;;;;;;;37.72;10.05;;;;;;;18.68;100.00;94974.44;5075190;28;20033;-91
2022/10/23 04:26:37;;;;;;;32.05;8.68;;;;;;;18.77;100.00;94977.91;5075359;28;20032;-90
2022/10/23 04:29:02;;;;;;;29.10;8.70;;;;;;;18.99;100.00;94984.31;5075688;28;20491;-91
2022/10/23 04:31:28;;;;;;;32.03;9.05;;;;;;;18.70;100.00;94979.44;5078845;28;20032;-91
2022/10/23 04:33:53;;;;;;;30.50;9.40;;;;;;;18.89;100.00;94979.22;5078916;28;20028;-90
2022/10/23 04:36:18;;;;;;;26.33;8.60;;;;;;;18.94;100.00;94965.84;5062813;28;20340;-90
2022/10/23 04:38:44;;;;;;;26.60;8.88;;;;;;;18.85;100.00;94965.00;5062375;28;20097;-90
2022/10/23 04:41:09;;;;;;;34.65;8.52;;;;;;;18.81;100.00;94961.41;5078697;28;20067;-90
2022/10/23 04:43:35;;;;;;;31.35;9.10;;;;;;;18.89;100.00;94966.75;5062341;28;20426;-90
2022/10/23 04:46:00;;;;;;;26.80;7.57;;;;;;;18.81;100.00;94972.00;5078834;28;20035;-90
2022/10/23 04:48:26;;;;;;;33.00;8.70;;;;;;;18.49;100.00;94961.38;5062295;28;20063;-91
2022/10/23 04:50:56;;;;;;;28.50;8.60;;;;;;;18.63;100.00;94967.38;5078597;28;20126;-90
2022/10/23 04:53:22;;;;;;;41.28;9.13;;;;;;;18.27;100.00;94964.81;5062169;28;20377;-91
2022/10/23 04:55:49;;;;;;;34.50;9.45;;;;;;;18.55;100.00;94967.34;5078779;28;20036;-90
2022/10/23 04:58:15;;;;;;;49.00;10.32;;;;;;;18.57;100.00;94962.50;5078495;28;20421;-90
2022/10/23 05:00:40;;;;;;;27.52;8.88;;;;;;;18.64;100.00;94957.53;5078417;28;20039;-90
2022/10/23 05:03:05;;;;;;;31.17;8.43;;;;;;;18.62;100.00;94954.41;5078667;28;20089;-90
2022/10/23 05:05:31;;;;;;;40.83;10.55;;;;;;;18.57;100.00;94954.56;5078607;28;20118;-90
2022/10/23 05:07:56;;;;;;;52.22;10.75;;;;;;;18.39;100.00;94951.00;5069392;28;20037;-89
2022/10/23 05:10:22;;;;;;;38.67;10.68;;;;;;;18.55;100.00;94956.72;5059650;28;20093;-90
2022/10/23 05:12:47;;;;;;;31.98;9.23;;;;;;;18.48;100.00;94957.94;5058215;28;20486;-90
2022/10/23 05:15:12;;;;;;;30.60;8.35;;;;;;;18.65;100.00;94953.81;5058200;28;20158;-90
2022/10/23 05:17:40;;;;;;;36.42;10.45;;;;;;;18.50;100.00;94952.31;5058416;28;20324;-90
2022/10/23 05:20:11;;;;;;;33.50;9.50;;;;;;;18.44;100.00;94949.00;5058363;28;20037;-90
2022/10/23 05:22:39;;;;;;;42.20;10.73;;;;;;;18.53;100.00;94953.59;5058420;28;20041;-90
2022/10/23 05:25:05;;;;;;;38.83;9.70;;;;;;;18.60;100.00;94952.09;5041573;28;20426;-90
2022/10/23 05:27:30;;;;;;;37.28;9.23;;;;;;;18.58;100.00;94959.56;5041568;28;20079;-90
2022/10/23 05:29:56;;;;;;;39.17;9.65;;;;;;;18.29;100.00;94954.69;5057636;28;20055;-90
2022/10/23 05:32:23;;;;;;;41.90;10.05;;;;;;;18.27;100.00;94962.16;5060526;28;20060;-91
2022/10/23 05:34:49;;;;;;;43.85;10.43;;;;;;;18.28;100.00;94961.84;5061438;28;20035;-90
2022/10/23 05:37:15;;;;;;;32.63;9.23;;;;;;;18.31;100.00;94965.78;5061306;28;20029;-90
2022/10/23 05:39:40;;;;;;;21.27;8.07;;;;;;;18.33;100.00;94969.69;5077902;28;20043;-90
2022/10/23 05:42:06;;;;;;;38.20;9.57;;;;;;;17.91;100.00;94964.50;5076906;28;20048;-91
2022/10/23 05:44:31;;;;;;;32.92;9.60;;;;;;;17.88;100.00;94969.63;5061208;28;20422;-91
2022/10/23 05:46:57;;;;;;;36.78;10.55;;;;;;;17.84;100.00;94968.66;5077766;28;20422;-90
2022/10/23 05:49:24;;;;;;;32.47;9.85;;;;;;;18.47;100.00;94968.84;5061204;28;20052;-90
2022/10/23 05:51:50;;;;;;;35.88;9.35;;;;;;;18.42;100.00;94969.75;5077588;28;20024;-90
2022/10/23 05:54:15;;;;;;;29.60;9.85;;;;;;;18.74;100.00;94964.50;5060920;28;20146;-92
2022/10/23 05:56:41;;;;;;;33.88;9.18;;;;;;;19.08;100.00;94968.41;5078696;28;20029;-90
2022/10/23 05:59:06;;;;;;;31.85;8.55;;;;;;;19.29;100.00;94965.97;5077439;28;20029;-90
2022/10/23 06:01:32;;;;;;;36.38;8.70;;;;;;;19.24;100.00;94968.00;5077212;28;20111;-91
2022/10/23 06:03:59;;;;;;;35.10;8.43;;;;;;;19.61;100.00;94966.69;5060958;28;20029;-90
2022/10/23 06:06:24;;;;;;;28.08;8.35;;;;;;;19.71;100.00;94978.13;5077274;28;20028;-90
2022/10/23 06:08:50;;;;;;;32.88;7.90;;;;;;;19.54;100.00;94979.66;5078617;28;20310;-90
2022/10/23 06:11:15;;;;;;;33.40;7.90;;;;;;;19.73;100.00;94986.56;5060544;28;20074;-90
2022/10/23 06:13:44;;;;;;;29.75;8.85;;;;;;;19.78;100.00;94995.19;5077390;28;20028;-90
2022/10/23 06:16:14;;;;;;;28.63;8.38;;;;;;;19.72;100.00;94995.63;5060662;28;20024;-90
2022/10/23 06:18:40;;;;;;;34.45;8.88;;;;;;;19.86;100.00;94998.94;5078204;28;20105;-90
2022/10/23 06:21:06;;;;;;;31.80;7.15;;;;;;;19.91;100.00;94998.00;5060343;28;20119;-90
2022/10/23 06:23:33;;;;;;;37.15;8.15;;;;;;;19.87;100.00;95005.03;5077181;28;20109;-90
2022/10/23 06:25:59;;;;;;;30.02;8.30;;;;;;;19.64;100.00;95007.81;5077248;28;20051;-91
2022/10/23 06:28:25;;;;;;;37.63;8.93;;;;;;;19.68;100.00;95010.66;5060357;28;20109;-90
2022/10/23 06:30:50;;;;;;;30.27;7.95;;;;;;;19.80;100.00;95008.16;5076699;28;20380;-90
2022/10/23 06:33:18;;;;;;;26.58;6.85;;;;;;;20.09;100.00;95021.97;5076660;28;20441;-91
2022/10/23 06:35:44;;;;;;;30.10;7.18;;;;;;;20.01;100.00;95019.03;5077291;28;20020;-92
2022/10/23 06:38:11;;;;;;;35.92;8.30;;;;;;;19.82;100.00;95027.25;5077880;28;20364;-89
2022/10/23 06:40:36;;;;;;;25.17;7.45;;;;;;;20.16;100.00;95020.44;5062137;28;20032;-91
2022/10/23 06:43:03;;;;;;;25.38;7.55;;;;;;;20.48;100.00;95030.91;5076429;28;20032;-89
2022/10/23 06:45:30;;;;;;;36.67;7.65;;;;;;;20.47;100.00;95035.44;5069637;28;20025;-91
2022/10/23 06:47:55;;;;;;;33.45;7.95;;;;;;;20.36;100.00;95036.84;5070809;28;20362;-89
2022/10/23 06:50:20;;;;;;;45.28;8.65;;;;;;;19.99;100.00;95033.72;5064080;28;20024;-91
2022/10/23 06:52:46;;;;;;;31.38;8.50;;;;;;;20.11;100.00;95041.06;5059815;28;20032;-89
2022/10/23 06:55:11;;;;;;;28.75;7.85;;;;;;;19.93;100.00;95041.06;5076566;28;20496;-90
2022/10/23 06:57:37;;;;;;;35.17;9.10;;;;;;;19.81;100.00;95033.66;5076284;28;20028;-88
2022/10/23 07:00:03;;;;;;;30.17;7.90;;;;;;;19.87;100.00;95035.06;5076676;28;20035;-90
2022/10/23 07:02:28;;;;;;;16.75;7.57;;;;;;;20.20;100.00;95034.66;5076604;28;20055;-89
2022/10/23 07:04:54;;;;;;;25.42;8.13;;;;;;;20.35;100.00;95029.97;5076439;28;20059;-90
2022/10/23 07:07:19;;;;;;;36.08;8.20;;;;;;;20.40;100.00;95034.34;5076150;28;20031;-90
2022/10/23 07:09:49;;;;;;;22.20;7.00;;;;;;;20.69;100.00;95039.03;5076301;28;20024;-90
2022/10/23 07:12:14;;;;;;;28.30;7.50;;;;;;;20.48;100.00;95045.00;5059517;28;20345;-91
2022/10/23 07:14:40;;;;;;;25.08;7.47;;;;;;;20.75;100.00;95034.34;5056601;28;20048;-91
2022/10/23 07:17:05;;;;;;;33.80;7.97;;;;;;;20.84;100.00;95034.34;5069200;28;20040;-90
2022/10/23 07:19:31;;;;;;;26.27;7.63;;;;;;;20.96;100.00;95033.69;5075981;28;20123;-90
2022/10/23 07:21:56;;;;;;;26.88;7.68;;;;;;;20.88;100.00;95037.94;5062095;28;20037;-93
2022/10/23 07:24:22;;;;;;;33.58;7.45;;;;;;;21.03;100.00;95026.78;5055876;28;20045;-90
2022/10/23 07:26:47;;;;;;;24.45;7.47;;;;;;;21.08;100.00;95027.69;5056905;28;20438;-91
2022/10/23 07:29:15;;;;;;;30.27;8.82;;;;;;;21.01;100.00;95033.50;5064088;28;20025;-91
2022/10/23 07:31:45;;;;;;;36.53;8.43;;;;;;;21.19;100.00;95039.56;5073119;28;20040;-89
2022/10/23 07:34:11;;;;;;;34.35;8.32;;;;;;;20.99;100.00;95041.84;5076255;28;20048;-93
2022/10/23 07:36:44;;;;;;;26.50;7.72;;;;;;;20.91;100.00;95039.97;5058991;28;20032;-91
2022/10/23 07:39:22;;;;;;;;;;;;;;;;;;;;;
2022/10/23 07:42:10;;;;;;;38.70;8.38;;;;;;;21.28;100.00;95044.88;5075123;28;20322;-90
2022/10/23 07:44:36;;;;;;;29.45;7.07;;;;;;;21.33;100.00;95045.47;5063678;28;20033;-90
2022/10/23 07:47:01;;;;;;;26.70;7.43;;;;;;;21.35;100.00;95047.03;5059070;28;20025;-93
2022/10/23 07:49:27;;;;;;;28.52;8.63;;;;;;;21.43;100.00;95043.56;5058953;28;20033;-91
2022/10/23 07:51:52;;;;;;;35.20;7.85;;;;;;;21.45;100.00;95042.16;5058398;28;20110;-91
2022/10/23 07:54:23;;;;;;;31.70;7.90;;;;;;;21.85;100.00;95033.03;5076853;28;20043;-91
2022/10/23 07:56:58;;;;;;;;;;;;;;;;;;;;;
2022/10/23 07:59:54;;;;;;;;;;;;;;;;;;;;;
2022/10/23 08:02:20;;;;;;;30.52;7.22;;;;;;;22.08;100.00;95040.72;5058859;28;20047;-89
2022/10/23 08:04:48;;;;;;;25.60;7.50;;;;;;;21.67;100.00;95045.69;5058364;28;20111;-91
2022/10/23 08:07:13;;;;;;;34.78;8.05;;;;;;;21.88;100.00;95043.06;5062186;28;20083;-90
2022/10/23 08:09:39;;;;;;;18.45;6.72;;;;;;;21.94;100.00;95049.00;5061872;28;20056;-90
2022/10/23 08:12:04;;;;;;;21.73;6.22;;;;;;;21.78;100.00;95048.00;5061839;28;20090;-89
2022/10/23 08:14:30;;;;;;;32.63;7.47;;;;;;;22.07;100.00;95049.84;5062109;28;20036;-89
2022/10/23 08:16:55;;;;;;;26.20;7.40;;;;;;;22.27;100.00;95047.53;5062134;28;20041;-88
2022/10/23 08:19:22;;;;;;;29.80;7.35;;;;;;;22.28;100.00;95052.53;5062027;28;20040;-88
2022/10/23 08:21:47;;;;;;;27.95;7.55;;;;;;;22.30;100.00;95044.97;5061947;28;20156;-88
2022/10/23 08:24:13;;;;;;;27.70;7.25;;;;;;;22.38;98.59;95053.25;5083375;28;20060;-88
2022/10/23 08:26:38;;;;;;;27.23;6.70;;;;;;;22.94;96.79;95062.84;5082322;28;20074;-88
2022/10/23 08:29:04;;;;;;;30.65;7.93;;;;;;;22.68;91.34;95055.84;5081993;28;20031;-89
2022/10/23 08:31:29;;;;;;;24.33;7.18;;;;;;;22.99;98.03;95065.31;5081647;28;20416;-89
2022/10/23 08:33:55;;;;;;;26.52;6.03;;;;;;;22.99;90.90;95055.41;5082387;28;20311;-88
2022/10/23 08:36:25;;;;;;;26.40;6.78;;;;;;;23.17;94.32;95065.91;5081955;28;20430;-89
2022/10/23 08:38:52;;;;;;;25.88;7.25;;;;;;;23.11;91.60;95064.56;5079462;28;20032;-89
2022/10/23 08:41:37;;;;;;;23.95;6.97;;;;;;;22.95;100.00;95061.72;5061203;28;20123;-88
2022/10/23 08:44:07;;;;;;;29.67;6.53;;;;;;;23.04;96.57;95067.00;5062257;28;20041;-89
2022/10/23 08:46:37;;;;;;;31.17;7.50;;;;;;;23.04;92.48;95070.44;5062276;28;20040;-88
2022/10/23 08:49:27;;;;;;;24.00;6.43;;;;;;;23.32;91.61;95071.75;5061894;28;20115;-88
2022/10/23 08:51:54;;;;;;;21.75;6.70;;;;;;;23.26;93.31;95068.47;5062543;28;20426;-88
2022/10/23 08:54:27;;;;;;;22.67;7.38;;;;;;;23.64;88.18;95063.97;5064496;28;20064;-89
2022/10/23 08:56:57;;;;;;;33.90;6.93;;;;;;;23.76;85.22;95055.97;5081573;28;20314;-88
2022/10/23 08:59:38;;;;;;;27.77;6.65;;;;;;;23.78;85.29;95052.97;5083391;28;20319;-88
2022/10/23 09:02:10;;;;;;;24.27;5.93;;;;;;;23.95;82.00;95060.75;5081377;28;20032;-89
2022/10/23 09:04:36;;;;;;;16.08;5.90;;;;;;;24.15;80.29;95058.28;5082994;28;20456;-87
2022/10/23 09:07:25;;;;;;;25.67;6.20;;;;;;;24.45;79.15;95060.66;5081666;28;20040;-89
2022/10/23 09:10:28;;;;;;;30.65;6.60;;;;;;;24.50;74.32;95065.78;5082726;28;20411;-88
2022/10/23 09:12:58;;;;;;;19.23;5.53;;;;;;;24.19;76.51;95066.41;5081327;28;20035;-88
2022/10/23 09:15:43;;;;;;;30.10;6.20;;;;;;;23.98;74.23;95064.66;5061559;28;20430;-88
2022/10/23 09:18:14;;;;;;;17.80;6.40;;;;;;;24.55;72.10;95067.47;5057880;28;20030;-88
2022/10/23 09:20:41;;;;;;;27.70;7.47;;;;;;;24.13;73.93;95064.00;5057881;28;20032;-89
2022/10/23 09:23:14;;;;;;;19.80;5.90;;;;;;;24.18;71.70;95062.97;5041869;28;20037;-90
2022/10/23 09:25:41;;;;;;;23.75;6.53;;;;;;;23.78;74.13;95072.44;5058455;28;20029;-89
2022/10/23 09:28:19;;;;;;;23.30;5.55;;;;;;;24.13;73.73;95069.34;5041903;28;20498;-89
2022/10/23 09:30:45;;;;;;;35.78;6.57;;;;;;;23.91;74.47;95070.56;5044661;28;20033;-89
2022/10/23 09:33:27;;;;;;;25.75;6.75;;;;;;;24.27;70.81;95068.22;5058074;28;20040;-90
2022/10/23 09:35:58;;;;;;;24.55;6.57;;;;;;;24.04;72.31;95075.94;5066177;28;20029;-89
2022/10/23 09:38:28;;;;;;;22.15;5.32;;;;;;;24.86;68.53;95071.38;5061437;28;20021;-86
2022/10/23 09:40:54;;;;;;;27.75;6.22;;;;;;;25.21;71.64;95069.97;5077563;28;20032;-86
2022/10/23 09:43:26;;;;;;;34.38;6.05;;;;;;;25.65;66.44;95069.94;5061383;28;20032;-86
2022/10/23 09:46:10;;;;;;;20.63;5.43;;;;;;;24.97;65.00;95061.72;5078197;28;20033;-86
2022/10/23 09:48:37;;;;;;;22.10;6.00;;;;;;;25.45;64.25;95069.03;5051905;28;20025;-87
2022/10/23 09:51:24;;;;;;;23.83;5.93;;;;;;;24.81;64.26;95072.41;5057499;28;20028;-87
2022/10/23 09:53:55;;;;;;;22.20;5.78;;;;;;;25.42;63.40;95069.75;5058296;28;20104;-87
2022/10/23 09:56:27;;;;;;;23.05;5.90;;;;;;;25.07;64.59;95068.50;5057727;28;20108;-87
2022/10/23 09:58:58;;;;;;;23.40;5.65;;;;;;;25.16;65.38;95071.00;5058508;28;20024;-88
2022/10/23 10:01:26;;;;;;;31.00;6.22;;;;;;;24.72;64.83;95074.41;5057199;28;20108;-87
2022/10/23 10:03:52;;;;;;;22.48;6.18;;;;;;;25.03;64.12;95072.19;5071705;28;20067;-87
2022/10/23 10:06:29;;;;;;;29.00;6.15;;;;;;;25.18;62.38;95076.00;5057889;28;20450;-87
2022/10/23 10:08:57;;;;;;;17.42;5.18;;;;;;;25.27;63.86;95079.31;5041114;28;20025;-88
2022/10/23 10:11:33;;;;;;;18.15;5.32;;;;;;;25.09;64.99;95073.50;5040692;28;20028;-87
2022/10/23 10:14:27;;;;;;;23.17;6.07;;;;;;;24.62;69.74;95075.69;5048272;28;20024;-87
2022/10/23 10:17:11;;;;;;;23.58;6.10;;;;;;;24.80;68.60;95070.06;5058529;28;20029;-87
2022/10/23 10:19:39;;;;;;;;;;;;;;;24.81;65.34;95076.97;5067881;28;20043;-87
2022/10/23 10:22:21;;;;;;;28.80;5.65;;;;;;;24.98;64.83;95070.53;5058082;28;20334;-89
2022/10/23 10:25:08;;;;;;;23.58;5.90;;;;;;;25.15;64.52;95076.69;5074124;28;20123;-88
2022/10/23 10:27:52;;;;;;;28.85;5.50;;;;;;;24.62;66.56;95073.00;5056953;28;20319;-88
2022/10/23 10:30:23;;;;;;;;;;;;;;;24.99;67.09;95072.09;5058371;28;20025;-87
2022/10/23 10:32:58;;;;;;;31.33;5.50;;;;;;;25.19;65.19;95074.91;5057367;28;19915;-87
2022/10/23 10:35:50;;;;;;;28.75;5.47;;;;;;;25.12;63.74;95070.91;5070975;28;20028;-88
2022/10/23 10:38:37;;;;;;;19.95;5.40;;;;;;;25.20;63.77;95063.81;5074082;28;20039;-87
2022/10/23 10:41:38;;;;;;;29.50;5.43;;;;;;;25.51;63.47;95058.84;5077930;28;20028;-88
2022/10/23 10:44:06;;;;;;;29.95;6.95;;;;;;;25.18;63.58;95059.91;5077474;28;20032;-92
2022/10/23 10:47:13;;;;;;;25.50;5.80;;;;;;;24.80;64.96;95067.38;5077894;28;20149;-91
2022/10/23 10:49:45;;;;;;;32.83;5.88;;;;;;;24.60;65.03;95056.50;5077962;28;20036;-89
2022/10/23 10:52:39;;;;;;;35.20;6.50;;;;;;;24.13;66.24;95063.19;5076649;28;20051;-87
2022/10/23 10:55:17;;;;;;;22.73;5.80;;;;;;;24.67;67.54;95053.22;5072621;28;20437;-88
2022/10/23 10:57:57;;;;;;;22.30;6.15;;;;;;;25.03;64.60;95054.19;5076666;28;20024;-87
2022/10/23 11:00:23;;;;;;;28.13;5.82;;;;;;;25.22;64.81;95044.72;5076068;28;20032;-87
2022/10/23 11:03:00;;;;;;;24.05;5.55;;;;;;;25.14;65.51;95046.44;5042116;28;20057;-87
2022/10/23 11:05:30;;;;;;;33.20;6.13;;;;;;;24.70;65.99;95052.53;5056775;28;20094;-87
2022/10/23 11:08:26;;;;;;;20.48;5.38;;;;;;;24.79;65.51;95047.06;5072864;28;20036;-86
2022/10/23 11:11:02;;;;;;;21.15;5.50;;;;;;;24.73;67.96;95049.19;5050961;28;20037;-88
2022/10/23 11:13:30;;;;;;;27.10;5.80;;;;;;;24.53;68.82;95058.97;5062728;28;20092;-86
2022/10/23 11:16:00;;;;;;;27.33;5.60;;;;;;;24.25;72.73;95054.38;5070625;28;20445;-87
2022/10/23 11:18:28;;;;;;;21.63;5.30;;;;;;;24.46;70.96;95045.38;5059924;28;20050;-87
2022/10/23 11:21:11;;;;;;;22.38;5.05;;;;;;;24.59;70.31;95046.91;5076050;28;20032;-88
2022/10/23 11:24:25;;;;;;;18.27;5.68;;;;;;;24.71;71.27;95048.75;5076021;28;20089;-87
2022/10/23 11:27:05;;;;;;;34.80;6.05;;;;;;;24.45;69.86;95041.16;5023688;28;20033;-87
2022/10/23 11:29:42;;;;;;;23.33;5.25;;;;;;;24.79;73.10;95037.13;5075933;28;20128;-87
2022/10/23 11:32:17;;;;;;;22.38;5.90;;;;;;;24.86;71.30;95023.16;5076460;28;20433;-88
2022/10/23 11:34:49;;;;;;;28.00;6.20;;;;;;;25.05;69.19;95032.41;5075867;28;20402;-91
2022/10/23 11:37:19;;;;;;;20.27;5.23;;;;;;;25.35;67.52;95034.69;5076185;28;20402;-88